sensor_id;sensor_type;location;lat;lon;timestamp;pressure;altitude;pressure_sealevel;temperature;humidity
72677;BME280;60755;51.374;10.662;2024-03-22T00:01:54;97745.25;;;6.59;90.26
72677;BME280;60755;51.374;10.662;2024-03-22T00:04:22;97743.03;;;6.63;90.73
72677;BME280;60755;51.374;10.662;2024-03-22T00:06:49;97742.66;;;6.66;90.65
72677;BME280;60755;51.374;10.662;2024-03-22T00:09:16;97740.44;;;6.69;90.12
72677;BME280;60755;51.374;10.662;2024-03-22T00:11:44;97736.44;;;6.67;90.30
72677;BME280;60755;51.374;10.662;2024-03-22T00:14:11;97734.22;;;6.70;90.93
72677;BME280;60755;51.374;10.662;2024-03-22T00:16:39;97727.97;;;6.65;90.15
72677;BME280;60755;51.374;10.662;2024-03-22T00:19:06;97724.94;;;6.55;89.47
72677;BME280;60755;51.374;10.662;2024-03-22T00:21:34;97720.09;;;6.45;89.01
72677;BME280;60755;51.374;10.662;2024-03-22T00:24:01;97722.28;;;6.35;89.69
72677;BME280;60755;51.374;10.662;2024-03-22T00:26:28;97719.00;;;6.20;89.66
72677;BME280;60755;51.374;10.662;2024-03-22T00:28:55;97708.75;;;6.11;90.44
72677;BME280;60755;51.374;10.662;2024-03-22T00:31:23;97713.72;;;6.06;90.51
72677;BME280;60755;51.374;10.662;2024-03-22T00:33:50;97706.13;;;6.11;91.21
72677;BME280;60755;51.374;10.662;2024-03-22T00:36:17;97700.53;;;6.21;90.77
72677;BME280;60755;51.374;10.662;2024-03-22T00:38:44;97695.75;;;6.31;90.03
72677;BME280;60755;51.374;10.662;2024-03-22T00:41:12;97684.31;;;6.32;90.25
72677;BME280;60755;51.374;10.662;2024-03-22T00:43:38;97685.75;;;6.35;89.87
72677;BME280;60755;51.374;10.662;2024-03-22T00:46:05;97680.88;;;6.19;90.96
72677;BME280;60755;51.374;10.662;2024-03-22T00:48:31;97682.94;;;6.43;89.53
72677;BME280;60755;51.374;10.662;2024-03-22T00:50:59;97683.78;;;6.50;89.39
72677;BME280;60755;51.374;10.662;2024-03-22T00:53:25;97688.19;;;6.56;89.23
72677;BME280;60755;51.374;10.662;2024-03-22T00:55:55;97686.22;;;6.58;89.19
72677;BME280;60755;51.374;10.662;2024-03-22T00:58:22;97692.22;;;6.65;89.45
72677;BME280;60755;51.374;10.662;2024-03-22T01:00:49;97683.38;;;6.73;89.78
72677;BME280;60755;51.374;10.662;2024-03-22T01:03:15;97679.59;;;6.76;89.30
72677;BME280;60755;51.374;10.662;2024-03-22T01:05:42;97671.34;;;6.79;88.79
72677;BME280;60755;51.374;10.662;2024-03-22T01:08:10;97671.78;;;6.82;89.86
72677;BME280;60755;51.374;10.662;2024-03-22T01:10:37;97660.72;;;6.87;89.02
72677;BME280;60755;51.374;10.662;2024-03-22T01:13:05;97660.72;;;6.87;89.55
72677;BME280;60755;51.374;10.662;2024-03-22T01:15:32;97658.09;;;6.93;88.42
72677;BME280;60755;51.374;10.662;2024-03-22T01:17:58;97656.88;;;6.96;89.22
72677;BME280;60755;51.374;10.662;2024-03-22T01:20:26;97654.91;;;6.98;88.28
72677;BME280;60755;51.374;10.662;2024-03-22T01:22:52;97647.66;;;7.00;88.16
72677;BME280;60755;51.374;10.662;2024-03-22T01:25:19;97645.06;;;7.00;87.79
72677;BME280;60755;51.374;10.662;2024-03-22T01:27:45;97636.19;;;7.01;88.76
72677;BME280;60755;51.374;10.662;2024-03-22T01:30:14;97632.19;;;6.98;89.06
72677;BME280;60755;51.374;10.662;2024-03-22T01:32:40;97633.00;;;6.92;87.96
72677;BME280;60755;51.374;10.662;2024-03-22T01:35:08;97639.59;;;6.88;89.38
72677;BME280;60755;51.374;10.662;2024-03-22T01:37:34;97646.44;;;6.96;89.36
72677;BME280;60755;51.374;10.662;2024-03-22T01:40:02;97642.03;;;6.96;88.15
72677;BME280;60755;51.374;10.662;2024-03-22T01:42:29;97639.03;;;6.99;88.20
72677;BME280;60755;51.374;10.662;2024-03-22T01:44:56;97638.41;;;6.97;89.45
72677;BME280;60755;51.374;10.662;2024-03-22T01:47:24;97640.03;;;6.98;87.95
72677;BME280;60755;51.374;10.662;2024-03-22T01:49:53;97635.41;;;6.94;88.17
72677;BME280;60755;51.374;10.662;2024-03-22T01:52:21;97632.19;;;6.92;89.12
72677;BME280;60755;51.374;10.662;2024-03-22T01:54:48;97630.75;;;6.89;88.83
72677;BME280;60755;51.374;10.662;2024-03-22T01:57:15;97639.81;;;6.87;88.76
72677;BME280;60755;51.374;10.662;2024-03-22T01:59:42;97640.59;;;6.81;89.40
72677;BME280;60755;51.374;10.662;2024-03-22T02:02:09;97635.19;;;6.76;89.26
72677;BME280;60755;51.374;10.662;2024-03-22T02:04:38;97636.59;;;6.78;89.80
72677;BME280;60755;51.374;10.662;2024-03-22T02:07:05;97628.34;;;6.81;89.24
72677;BME280;60755;51.374;10.662;2024-03-22T02:09:32;97623.53;;;6.85;89.49
72677;BME280;60755;51.374;10.662;2024-03-22T02:11:58;97622.75;;;6.91;88.76
72677;BME280;60755;51.374;10.662;2024-03-22T02:14:25;97620.53;;;7.01;89.16
72677;BME280;60755;51.374;10.662;2024-03-22T02:16:52;97620.72;;;7.06;88.15
72677;BME280;60755;51.374;10.662;2024-03-22T02:19:19;97616.28;;;7.13;89.29
72677;BME280;60755;51.374;10.662;2024-03-22T02:21:46;97611.84;;;7.20;89.18
72677;BME280;60755;51.374;10.662;2024-03-22T02:24:15;97603.63;;;7.04;89.99
72677;BME280;60755;51.374;10.662;2024-03-22T02:26:41;97612.69;;;7.01;89.25
72677;BME280;60755;51.374;10.662;2024-03-22T02:29:09;97612.25;;;7.17;89.01
72677;BME280;60755;51.374;10.662;2024-03-22T02:31:35;97599.41;;;7.16;88.76
72677;BME280;60755;51.374;10.662;2024-03-22T02:34:02;97608.66;;;7.05;88.28
72677;BME280;60755;51.374;10.662;2024-03-22T02:36:28;97600.22;;;7.03;89.36
72677;BME280;60755;51.374;10.662;2024-03-22T02:38:55;97594.59;;;7.06;88.47
72677;BME280;60755;51.374;10.662;2024-03-22T02:41:23;97598.03;;;7.07;88.19
72677;BME280;60755;51.374;10.662;2024-03-22T02:43:50;97590.56;;;7.17;88.79
72677;BME280;60755;51.374;10.662;2024-03-22T02:46:16;97588.75;;;7.24;88.24
72677;BME280;60755;51.374;10.662;2024-03-22T02:48:43;97582.69;;;7.30;89.42
72677;BME280;60755;51.374;10.662;2024-03-22T02:51:10;97581.88;;;7.29;87.98
72677;BME280;60755;51.374;10.662;2024-03-22T02:53:37;97572.03;;;7.32;88.96
72677;BME280;60755;51.374;10.662;2024-03-22T02:56:04;97567.59;;;7.32;89.43
72677;BME280;60755;51.374;10.662;2024-03-22T02:58:32;97566.41;;;7.28;89.47
72677;BME280;60755;51.374;10.662;2024-03-22T03:01:00;97557.59;;;7.22;89.43
72677;BME280;60755;51.374;10.662;2024-03-22T03:03:28;97553.75;;;7.18;88.58
72677;BME280;60755;51.374;10.662;2024-03-22T03:05:54;97551.38;;;7.10;88.65
72677;BME280;60755;51.374;10.662;2024-03-22T03:08:22;97544.13;;;7.12;88.79
72677;BME280;60755;51.374;10.662;2024-03-22T03:10:48;97542.13;;;7.08;88.76
72677;BME280;60755;51.374;10.662;2024-03-22T03:13:15;97549.16;;;7.07;89.57
72677;BME280;60755;51.374;10.662;2024-03-22T03:15:43;97549.16;;;7.07;89.76
72677;BME280;60755;51.374;10.662;2024-03-22T03:18:10;97554.16;;;7.22;89.92
72677;BME280;60755;51.374;10.662;2024-03-22T03:20:36;97553.13;;;7.29;89.15
72677;BME280;60755;51.374;10.662;2024-03-22T03:23:04;97549.28;;;7.39;89.83
72677;BME280;60755;51.374;10.662;2024-03-22T03:25:30;97546.63;;;7.45;89.11
72677;BME280;60755;51.374;10.662;2024-03-22T03:27:57;97541.41;;;7.45;89.00
72677;BME280;60755;51.374;10.662;2024-03-22T03:30:23;97547.06;;;7.42;89.42
72677;BME280;60755;51.374;10.662;2024-03-22T03:32:53;97536.16;;;7.45;89.69
72677;BME280;60755;51.374;10.662;2024-03-22T03:35:19;97536.41;;;7.37;89.80
72677;BME280;60755;51.374;10.662;2024-03-22T03:37:46;97528.97;;;7.41;90.76
72677;BME280;60755;51.374;10.662;2024-03-22T03:40:13;97527.13;;;7.48;90.26
72677;BME280;60755;51.374;10.662;2024-03-22T03:42:40;97526.13;;;7.49;90.83
72677;BME280;60755;51.374;10.662;2024-03-22T03:45:07;97519.59;;;7.65;89.00
72677;BME280;60755;51.374;10.662;2024-03-22T03:47:34;97510.13;;;7.70;88.66
72677;BME280;60755;51.374;10.662;2024-03-22T03:50:02;97499.47;;;7.72;90.04
72677;BME280;60755;51.374;10.662;2024-03-22T03:52:29;97505.06;;;7.75;89.21
72677;BME280;60755;51.374;10.662;2024-03-22T03:54:55;97496.91;;;7.58;91.22
72677;BME280;60755;51.374;10.662;2024-03-22T03:57:22;97484.47;;;7.85;89.38
72677;BME280;60755;51.374;10.662;2024-03-22T03:59:48;97482.44;;;7.94;88.70
72677;BME280;60755;51.374;10.662;2024-03-22T04:02:16;97485.22;;;7.93;89.94
72677;BME280;60755;51.374;10.662;2024-03-22T04:04:42;97482.34;;;8.01;89.28
72677;BME280;60755;51.374;10.662;2024-03-22T04:07:11;97476.88;;;7.77;90.29
72677;BME280;60755;51.374;10.662;2024-03-22T04:09:37;97473.56;;;7.95;89.43
72677;BME280;60755;51.374;10.662;2024-03-22T04:12:05;97470.94;;;7.95;90.67
72677;BME280;60755;51.374;10.662;2024-03-22T04:14:31;97474.56;;;7.94;90.68
72677;BME280;60755;51.374;10.662;2024-03-22T04:16:59;97469.72;;;7.98;89.50
72677;BME280;60755;51.374;10.662;2024-03-22T04:19:25;97472.59;;;7.90;91.13
72677;BME280;60755;51.374;10.662;2024-03-22T04:21:52;97469.72;;;7.98;90.47
72677;BME280;60755;51.374;10.662;2024-03-22T04:24:19;97466.72;;;7.94;89.50
72677;BME280;60755;51.374;10.662;2024-03-22T04:26:47;97462.38;;;7.81;90.45
72677;BME280;60755;51.374;10.662;2024-03-22T04:29:13;97459.16;;;7.79;91.70
72677;BME280;60755;51.374;10.662;2024-03-22T04:31:40;97462.56;;;7.87;92.56
72677;BME280;60755;51.374;10.662;2024-03-22T04:34:06;97458.47;;;7.91;91.32
72677;BME280;60755;51.374;10.662;2024-03-22T04:36:34;97450.03;;;7.89;92.30
72677;BME280;60755;51.374;10.662;2024-03-22T04:39:00;97450.81;;;7.96;92.64
72677;BME280;60755;51.374;10.662;2024-03-22T04:41:28;97439.31;;;7.97;91.62
72677;BME280;60755;51.374;10.662;2024-03-22T04:43:56;97446.84;;;7.87;93.22
72677;BME280;60755;51.374;10.662;2024-03-22T04:46:23;97452.22;;;7.92;92.42
72677;BME280;60755;51.374;10.662;2024-03-22T04:48:49;97438.13;;;7.93;92.57
72677;BME280;60755;51.374;10.662;2024-03-22T04:51:16;97442.75;;;7.97;92.50
72677;BME280;60755;51.374;10.662;2024-03-22T04:53:42;97435.75;;;8.16;92.72
72677;BME280;60755;51.374;10.662;2024-03-22T04:56:10;97435.31;;;8.19;90.79
72677;BME280;60755;51.374;10.662;2024-03-22T04:58:37;97443.19;;;8.19;91.00
72677;BME280;60755;51.374;10.662;2024-03-22T05:01:05;97437.50;;;8.22;90.79
72677;BME280;60755;51.374;10.662;2024-03-22T05:03:31;97433.44;;;8.01;93.23
72677;BME280;60755;51.374;10.662;2024-03-22T05:05:58;97425.50;;;8.14;93.21
72677;BME280;60755;51.374;10.662;2024-03-22T05:08:24;97439.09;;;8.23;91.82
72677;BME280;60755;51.374;10.662;2024-03-22T05:10:52;97446.47;;;8.08;92.52
72677;BME280;60755;51.374;10.662;2024-03-22T05:13:19;97437.00;;;8.32;91.14
72677;BME280;60755;51.374;10.662;2024-03-22T05:15:47;97439.41;;;8.33;90.86
72677;BME280;60755;51.374;10.662;2024-03-22T05:18:14;97430.44;;;8.23;92.66
72677;BME280;60755;51.374;10.662;2024-03-22T05:20:41;97434.53;;;8.44;90.83
72677;BME280;60755;51.374;10.662;2024-03-22T05:23:07;97429.31;;;8.44;92.03
72677;BME280;60755;51.374;10.662;2024-03-22T05:25:34;97437.72;;;8.46;91.78
72677;BME280;60755;51.374;10.662;2024-03-22T05:28:01;97428.13;;;8.39;91.59
72677;BME280;60755;51.374;10.662;2024-03-22T05:30:28;97420.66;;;8.43;90.35
72677;BME280;60755;51.374;10.662;2024-03-22T05:32:55;97430.03;;;8.51;90.20
72677;BME280;60755;51.374;10.662;2024-03-22T05:35:23;97428.81;;;8.53;91.12
72677;BME280;60755;51.374;10.662;2024-03-22T05:37:49;97432.06;;;8.49;90.92
72677;BME280;60755;51.374;10.662;2024-03-22T05:40:16;97432.38;;;8.59;89.68
72677;BME280;60755;51.374;10.662;2024-03-22T05:42:43;97420.56;;;8.50;91.71
72677;BME280;60755;51.374;10.662;2024-03-22T05:45:10;97416.22;;;8.62;90.71
72677;BME280;60755;51.374;10.662;2024-03-22T05:47:36;97401.75;;;8.59;90.31
72677;BME280;60755;51.374;10.662;2024-03-22T05:50:07;97407.06;;;8.71;89.93
72677;BME280;60755;51.374;10.662;2024-03-22T05:52:34;97407.63;;;8.73;89.55
72677;BME280;60755;51.374;10.662;2024-03-22T05:55:01;97406.53;;;8.62;89.73
72677;BME280;60755;51.374;10.662;2024-03-22T05:57:28;97409.22;;;8.74;90.49
72677;BME280;60755;51.374;10.662;2024-03-22T05:59:55;97404.59;;;8.76;90.73
72677;BME280;60755;51.374;10.662;2024-03-22T06:02:21;97393.94;;;8.71;90.41
72677;BME280;60755;51.374;10.662;2024-03-22T06:04:49;97392.13;;;8.53;91.80
72677;BME280;60755;51.374;10.662;2024-03-22T06:07:16;97386.22;;;8.94;90.78
72677;BME280;60755;51.374;10.662;2024-03-22T06:09:44;97381.97;;;9.12;89.81
72677;BME280;60755;51.374;10.662;2024-03-22T06:12:12;97378.78;;;9.10;88.54
72677;BME280;60755;51.374;10.662;2024-03-22T06:14:39;97369.03;;;9.29;89.77
72677;BME280;60755;51.374;10.662;2024-03-22T06:17:06;97372.44;;;9.47;87.93
72677;BME280;60755;51.374;10.662;2024-03-22T06:19:34;97377.91;;;9.58;87.80
72677;BME280;60755;51.374;10.662;2024-03-22T06:22:00;97377.91;;;9.58;88.45
72677;BME280;60755;51.374;10.662;2024-03-22T06:24:29;97380.00;;;9.67;88.08
72677;BME280;60755;51.374;10.662;2024-03-22T06:26:56;97368.28;;;9.81;86.65
72677;BME280;60755;51.374;10.662;2024-03-22T06:29:23;97364.28;;;9.79;85.82
72677;BME280;60755;51.374;10.662;2024-03-22T06:31:49;97362.91;;;9.88;86.81
72677;BME280;60755;51.374;10.662;2024-03-22T06:34:18;97363.81;;;9.82;88.09
72677;BME280;60755;51.374;10.662;2024-03-22T06:36:44;97355.75;;;10.19;85.42
72677;BME280;60755;51.374;10.662;2024-03-22T06:39:12;97354.03;;;10.48;83.87
72677;BME280;60755;51.374;10.662;2024-03-22T06:41:41;97361.56;;;10.56;82.95
72677;BME280;60755;51.374;10.662;2024-03-22T06:44:09;97361.31;;;10.57;82.66
72677;BME280;60755;51.374;10.662;2024-03-22T06:46:37;97360.59;;;10.74;82.14
72677;BME280;60755;51.374;10.662;2024-03-22T06:49:05;97350.56;;;10.71;82.88
72677;BME280;60755;51.374;10.662;2024-03-22T06:51:31;97344.09;;;10.38;83.88
72677;BME280;60755;51.374;10.662;2024-03-22T06:53:58;97348.88;;;10.18;85.26
72677;BME280;60755;51.374;10.662;2024-03-22T06:56:24;97348.00;;;10.35;83.82
72677;BME280;60755;51.374;10.662;2024-03-22T06:58:53;97351.31;;;10.31;83.79
72677;BME280;60755;51.374;10.662;2024-03-22T07:01:20;97346.72;;;9.91;84.81
72677;BME280;60755;51.374;10.662;2024-03-22T07:03:46;97353.47;;;10.11;84.49
72677;BME280;60755;51.374;10.662;2024-03-22T07:06:14;97355.63;;;9.90;85.70
72677;BME280;60755;51.374;10.662;2024-03-22T07:08:40;97360.06;;;9.90;85.72
72677;BME280;60755;51.374;10.662;2024-03-22T07:11:07;97353.47;;;10.22;84.25
72677;BME280;60755;51.374;10.662;2024-03-22T07:13:34;97348.78;;;10.13;84.49
72677;BME280;60755;51.374;10.662;2024-03-22T07:16:03;97345.44;;;10.17;84.75
72677;BME280;60755;51.374;10.662;2024-03-22T07:18:30;97350.03;;;10.33;84.62
72677;BME280;60755;51.374;10.662;2024-03-22T07:20:57;97352.91;;;10.32;84.38
72677;BME280;60755;51.374;10.662;2024-03-22T07:23:24;97350.13;;;10.62;83.06
72677;BME280;60755;51.374;10.662;2024-03-22T07:25:51;97352.94;;;10.84;81.67
72677;BME280;60755;51.374;10.662;2024-03-22T07:28:17;97353.88;;;10.66;82.38
72677;BME280;60755;51.374;10.662;2024-03-22T07:30:44;97351.53;;;10.93;81.53
72677;BME280;60755;51.374;10.662;2024-03-22T07:33:12;97354.09;;;11.05;81.21
72677;BME280;60755;51.374;10.662;2024-03-22T07:35:42;97356.75;;;11.05;81.81
72677;BME280;60755;51.374;10.662;2024-03-22T07:38:08;97356.66;;;11.28;80.86
72677;BME280;60755;51.374;10.662;2024-03-22T07:40:36;97357.31;;;11.35;80.57
72677;BME280;60755;51.374;10.662;2024-03-22T07:43:02;97354.91;;;11.34;80.51
72677;BME280;60755;51.374;10.662;2024-03-22T07:45:32;97346.59;;;11.25;80.53
72677;BME280;60755;51.374;10.662;2024-03-22T07:47:58;97350.19;;;10.79;82.53
72677;BME280;60755;51.374;10.662;2024-03-22T07:50:27;97343.97;;;11.25;81.63
72677;BME280;60755;51.374;10.662;2024-03-22T07:52:53;97336.31;;;11.24;80.69
72677;BME280;60755;51.374;10.662;2024-03-22T07:55:21;97330.22;;;11.52;79.76
72677;BME280;60755;51.374;10.662;2024-03-22T07:57:48;97332.94;;;11.40;80.40
72677;BME280;60755;51.374;10.662;2024-03-22T08:00:16;97342.69;;;11.56;79.51
72677;BME280;60755;51.374;10.662;2024-03-22T08:02:42;97332.22;;;11.61;79.82
72677;BME280;60755;51.374;10.662;2024-03-22T08:05:09;97327.75;;;11.78;78.84
72677;BME280;60755;51.374;10.662;2024-03-22T08:07:37;97327.94;;;11.89;78.51
72677;BME280;60755;51.374;10.662;2024-03-22T08:10:05;97322.41;;;11.73;79.15
72677;BME280;60755;51.374;10.662;2024-03-22T08:12:31;97317.22;;;11.78;79.26
72677;BME280;60755;51.374;10.662;2024-03-22T08:14:58;97318.13;;;11.84;78.43
72677;BME280;60755;51.374;10.662;2024-03-22T08:17:24;97314.94;;;11.99;78.65
72677;BME280;60755;51.374;10.662;2024-03-22T08:19:52;97310.16;;;11.96;78.01
72677;BME280;60755;51.374;10.662;2024-03-22T08:22:18;97308.75;;;12.10;77.50
72677;BME280;60755;51.374;10.662;2024-03-22T08:24:47;97312.22;;;11.94;77.98
72677;BME280;60755;51.374;10.662;2024-03-22T08:27:14;97301.00;;;12.20;77.36
72677;BME280;60755;51.374;10.662;2024-03-22T08:29:41;97295.00;;;12.47;75.97
72677;BME280;60755;51.374;10.662;2024-03-22T08:32:07;97301.63;;;12.27;77.49
72677;BME280;60755;51.374;10.662;2024-03-22T08:34:34;97306.03;;;12.66;76.07
72677;BME280;60755;51.374;10.662;2024-03-22T08:37:01;97312.25;;;12.76;75.44
72677;BME280;60755;51.374;10.662;2024-03-22T08:39:29;97307.34;;;13.12;74.68
72677;BME280;60755;51.374;10.662;2024-03-22T08:41:57;97295.59;;;12.98;74.80
72677;BME280;60755;51.374;10.662;2024-03-22T08:44:24;97292.22;;;13.02;74.44
72677;BME280;60755;51.374;10.662;2024-03-22T08:46:50;97291.75;;;13.32;72.74
72677;BME280;60755;51.374;10.662;2024-03-22T08:49:17;97289.13;;;13.10;74.74
72677;BME280;60755;51.374;10.662;2024-03-22T08:51:45;97280.47;;;13.79;72.74
72677;BME280;60755;51.374;10.662;2024-03-22T08:54:14;97274.06;;;13.65;72.96
72677;BME280;60755;51.374;10.662;2024-03-22T08:56:40;97277.03;;;13.79;71.94
72677;BME280;60755;51.374;10.662;2024-03-22T08:59:09;97271.25;;;14.24;70.78
72677;BME280;60755;51.374;10.662;2024-03-22T09:01:36;97267.59;;;14.35;70.38
72677;BME280;60755;51.374;10.662;2024-03-22T09:04:03;97263.34;;;13.82;71.29
72677;BME280;60755;51.374;10.662;2024-03-22T09:06:30;97258.88;;;14.40;71.47
72677;BME280;60755;51.374;10.662;2024-03-22T09:08:58;97263.19;;;13.98;70.87
72677;BME280;60755;51.374;10.662;2024-03-22T09:11:24;97262.66;;;14.02;70.94
72677;BME280;60755;51.374;10.662;2024-03-22T09:13:52;97262.88;;;13.95;72.25
72677;BME280;60755;51.374;10.662;2024-03-22T09:16:19;97249.06;;;14.30;71.27
72677;BME280;60755;51.374;10.662;2024-03-22T09:18:47;97249.47;;;14.64;68.66
72677;BME280;60755;51.374;10.662;2024-03-22T09:21:13;97251.41;;;14.99;68.75
72677;BME280;60755;51.374;10.662;2024-03-22T09:23:40;97240.81;;;14.99;69.63
72677;BME280;60755;51.374;10.662;2024-03-22T09:26:06;97238.19;;;14.94;69.08
72677;BME280;60755;51.374;10.662;2024-03-22T09:28:34;97226.56;;;15.21;67.46
72677;BME280;60755;51.374;10.662;2024-03-22T09:31:03;97235.03;;;15.02;67.95
72677;BME280;60755;51.374;10.662;2024-03-22T09:33:33;97227.09;;;15.28;66.47
72677;BME280;60755;51.374;10.662;2024-03-22T09:35:59;97224.66;;;15.92;66.48
72677;BME280;60755;51.374;10.662;2024-03-22T09:38:26;97233.44;;;15.52;67.50
72677;BME280;60755;51.374;10.662;2024-03-22T09:40:53;97217.03;;;15.76;67.90
72677;BME280;60755;51.374;10.662;2024-03-22T09:43:21;97222.84;;;15.62;65.77
72677;BME280;60755;51.374;10.662;2024-03-22T09:45:47;97209.59;;;15.78;66.17
72677;BME280;60755;51.374;10.662;2024-03-22T09:48:17;97210.16;;;15.34;66.43
72677;BME280;60755;51.374;10.662;2024-03-22T09:50:46;97211.72;;;15.71;66.29
72677;BME280;60755;51.374;10.662;2024-03-22T09:53:13;97210.56;;;14.60;69.88
72677;BME280;60755;51.374;10.662;2024-03-22T09:55:44;97212.22;;;14.91;68.80
72677;BME280;60755;51.374;10.662;2024-03-22T09:58:12;97201.63;;;14.61;69.46
72677;BME280;60755;51.374;10.662;2024-03-22T10:00:40;97206.41;;;14.06;70.67
72677;BME280;60755;51.374;10.662;2024-03-22T10:03:08;97200.50;;;14.46;70.81
72677;BME280;60755;51.374;10.662;2024-03-22T10:05:36;97196.59;;;14.74;70.02
72677;BME280;60755;51.374;10.662;2024-03-22T10:08:05;97193.72;;;14.96;69.83
72677;BME280;60755;51.374;10.662;2024-03-22T10:10:31;97198.78;;;15.08;68.62
72677;BME280;60755;51.374;10.662;2024-03-22T10:13:00;97193.72;;;14.96;68.14
72677;BME280;60755;51.374;10.662;2024-03-22T10:15:26;97180.75;;;15.10;68.70
72677;BME280;60755;51.374;10.662;2024-03-22T10:17:56;97186.84;;;14.95;68.85
72677;BME280;60755;51.374;10.662;2024-03-22T10:20:23;97178.38;;;14.98;68.55
72677;BME280;60755;51.374;10.662;2024-03-22T10:22:57;97185.66;;;14.40;69.78
72677;BME280;60755;51.374;10.662;2024-03-22T10:25:25;97186.84;;;14.85;69.22
72677;BME280;60755;51.374;10.662;2024-03-22T10:27:54;97180.75;;;15.15;69.82
72677;BME280;60755;51.374;10.662;2024-03-22T10:30:21;97183.13;;;15.62;67.32
72677;BME280;60755;51.374;10.662;2024-03-22T10:32:51;97178.63;;;14.97;68.85
72677;BME280;60755;51.374;10.662;2024-03-22T10:35:17;97175.19;;;14.91;68.77
72677;BME280;60755;51.374;10.662;2024-03-22T10:37:45;97175.97;;;15.53;67.57
72677;BME280;60755;51.374;10.662;2024-03-22T10:40:11;97169.31;;;15.71;67.31
72677;BME280;60755;51.374;10.662;2024-03-22T10:42:42;97165.59;;;15.77;67.90
72677;BME280;60755;51.374;10.662;2024-03-22T10:45:09;97158.00;;;16.25;66.07
72677;BME280;60755;51.374;10.662;2024-03-22T10:47:37;97164.19;;;16.05;64.98
72677;BME280;60755;51.374;10.662;2024-03-22T10:50:05;97159.22;;;16.92;63.88
72677;BME280;60755;51.374;10.662;2024-03-22T10:52:38;97149.03;;;16.65;65.01
72677;BME280;60755;51.374;10.662;2024-03-22T10:55:08;97147.19;;;16.60;64.41
72677;BME280;60755;51.374;10.662;2024-03-22T10:57:38;97144.09;;;16.48;65.24
72677;BME280;60755;51.374;10.662;2024-03-22T11:00:08;97139.00;;;16.96;63.48
72677;BME280;60755;51.374;10.662;2024-03-22T11:02:37;97137.38;;;17.00;63.08
72677;BME280;60755;51.374;10.662;2024-03-22T11:05:04;97124.34;;;17.03;64.15
72677;BME280;60755;51.374;10.662;2024-03-22T11:07:31;97123.31;;;17.28;62.69
72677;BME280;60755;51.374;10.662;2024-03-22T11:09:58;97116.22;;;16.90;62.36
72677;BME280;60755;51.374;10.662;2024-03-22T11:12:29;97119.91;;;17.23;62.06
72677;BME280;60755;51.374;10.662;2024-03-22T11:14:59;97118.88;;;16.50;63.34
72677;BME280;60755;51.374;10.662;2024-03-22T11:17:28;97118.47;;;15.69;64.18
72677;BME280;60755;51.374;10.662;2024-03-22T11:19:57;97114.75;;;15.70;65.55
72677;BME280;60755;51.374;10.662;2024-03-22T11:22:25;97105.47;;;16.27;65.11
72677;BME280;60755;51.374;10.662;2024-03-22T11:24:52;97096.41;;;16.38;63.46
72677;BME280;60755;51.374;10.662;2024-03-22T11:27:19;97096.03;;;16.94;62.92
72677;BME280;60755;51.374;10.662;2024-03-22T11:29:46;97094.19;;;16.50;64.11
72677;BME280;60755;51.374;10.662;2024-03-22T11:32:14;97083.00;;;17.21;61.73
72677;BME280;60755;51.374;10.662;2024-03-22T11:34:43;97089.56;;;16.71;64.28
72677;BME280;60755;51.374;10.662;2024-03-22T11:37:12;97090.47;;;16.51;64.04
72677;BME280;60755;51.374;10.662;2024-03-22T11:39:39;97095.88;;;16.36;64.06
72677;BME280;60755;51.374;10.662;2024-03-22T11:42:08;97087.63;;;15.88;66.17
72677;BME280;60755;51.374;10.662;2024-03-22T11:44:36;97091.19;;;16.22;64.58
72677;BME280;60755;51.374;10.662;2024-03-22T11:47:04;97079.13;;;15.96;64.07
72677;BME280;60755;51.374;10.662;2024-03-22T11:49:31;97084.75;;;15.84;64.65
72677;BME280;60755;51.374;10.662;2024-03-22T11:52:00;97077.03;;;15.93;64.74
72677;BME280;60755;51.374;10.662;2024-03-22T11:54:27;97066.84;;;16.55;64.54
72677;BME280;60755;51.374;10.662;2024-03-22T11:56:55;97068.94;;;16.18;63.28
72677;BME280;60755;51.374;10.662;2024-03-22T11:59:22;97063.53;;;16.68;62.66
72677;BME280;60755;51.374;10.662;2024-03-22T12:01:49;97054.34;;;16.94;61.82
72677;BME280;60755;51.374;10.662;2024-03-22T12:04:16;97055.22;;;16.85;61.04
72677;BME280;60755;51.374;10.662;2024-03-22T12:06:44;97047.09;;;16.37;62.60
72677;BME280;60755;51.374;10.662;2024-03-22T12:09:12;97039.59;;;16.44;63.52
72677;BME280;60755;51.374;10.662;2024-03-22T12:11:40;97047.63;;;15.89;64.00
72677;BME280;60755;51.374;10.662;2024-03-22T12:14:06;97042.25;;;15.40;65.20
72677;BME280;60755;51.374;10.662;2024-03-22T12:16:33;97033.41;;;15.70;65.08
72677;BME280;60755;51.374;10.662;2024-03-22T12:19:00;97026.69;;;16.71;63.08
72677;BME280;60755;51.374;10.662;2024-03-22T12:21:27;97021.00;;;16.44;62.82
72677;BME280;60755;51.374;10.662;2024-03-22T12:23:53;97023.91;;;17.34;61.57
72677;BME280;60755;51.374;10.662;2024-03-22T12:26:22;97024.25;;;17.04;61.56
72677;BME280;60755;51.374;10.662;2024-03-22T12:28:48;97014.53;;;16.94;61.08
72677;BME280;60755;51.374;10.662;2024-03-22T12:31:17;97007.03;;;17.01;61.53
72677;BME280;60755;51.374;10.662;2024-03-22T12:33:44;97009.47;;;16.69;61.32
72677;BME280;60755;51.374;10.662;2024-03-22T12:36:11;97004.97;;;16.59;62.15
72677;BME280;60755;51.374;10.662;2024-03-22T12:38:37;97002.88;;;17.14;61.05
72677;BME280;60755;51.374;10.662;2024-03-22T12:41:04;96989.16;;;17.31;61.66
72677;BME280;60755;51.374;10.662;2024-03-22T12:43:33;96996.28;;;17.12;60.71
72677;BME280;60755;51.374;10.662;2024-03-22T12:46:00;96993.84;;;17.15;60.88
72677;BME280;60755;51.374;10.662;2024-03-22T12:48:26;96987.41;;;17.21;60.45
72677;BME280;60755;51.374;10.662;2024-03-22T12:50:54;96992.56;;;16.84;60.92
72677;BME280;60755;51.374;10.662;2024-03-22T12:53:20;96989.22;;;16.73;61.26
72677;BME280;60755;51.374;10.662;2024-03-22T12:55:47;96988.59;;;16.18;62.28